Time;durP1;ratioP1;P1;durP2;ratioP2;P2;SDS_P1;SDS_P2;PMS_P1;PMS_P2;Temp;Humidity;BMP_temperature;BMP_pressure;BME280_temperature;BME280_humidity;BME280_pressure;Samples;Min_cycle;Max_cycle;Signal;HPM_P1;HPM_P2
2022/02/13 00:02:07;;;;;;;19.33;7.00;;;0.10;97.30;;;;;;5036160;28;20195;-79
2022/02/13 00:04:33;;;;;;;15.20;6.70;;;0.10;97.30;;;;;;5034269;28;20520;-79
2022/02/13 00:06:59;;;;;;;13.47;7.43;;;0.00;97.30;;;;;;5034016;28;20454;-79
2022/02/13 00:09:24;;;;;;;12.50;6.40;;;0.00;97.30;;;;;;5034077;28;20470;-79
2022/02/13 00:11:50;;;;;;;15.47;7.07;;;-0.10;97.30;;;;;;5035163;28;20506;-79
2022/02/13 00:14:15;;;;;;;14.17;6.87;;;-0.10;97.30;;;;;;5036025;28;20182;-79
2022/02/13 00:16:41;;;;;;;22.37;7.07;;;-0.10;97.30;;;;;;5034401;28;20216;-79
2022/02/13 00:19:07;;;;;;;16.57;6.93;;;-0.20;97.30;;;;;;5034419;28;20241;-79
2022/02/13 00:21:33;;;;;;;16.07;6.93;;;-0.20;97.30;;;;;;5034048;28;20714;-79
2022/02/13 00:23:58;;;;;;;17.60;6.50;;;-0.20;97.30;;;;;;5034092;28;20455;-79
2022/02/13 00:26:24;;;;;;;20.07;7.43;;;-0.20;97.30;;;;;;5033710;28;20179;-79
2022/02/13 00:28:50;;;;;;;11.27;6.30;;;-0.20;97.30;;;;;;5034480;28;20176;-79
2022/02/13 00:31:15;;;;;;;12.43;6.40;;;-0.10;97.30;;;;;;5033679;28;20556;-79
2022/02/13 00:33:41;;;;;;;22.83;8.40;;;-0.10;97.30;;;;;;5034066;28;20191;-79
2022/02/13 00:36:07;;;;;;;14.23;6.70;;;-0.10;97.30;;;;;;5033795;28;20200;-80
2022/02/13 00:38:32;;;;;;;13.30;5.80;;;-0.10;97.30;;;;;;5033598;28;20650;-79
2022/02/13 00:40:58;;;;;;;16.87;7.57;;;-0.10;97.30;;;;;;5034629;28;20184;-79
2022/02/13 00:43:23;;;;;;;17.27;7.43;;;-0.10;97.30;;;;;;5033266;28;20231;-79
2022/02/13 00:45:49;;;;;;;17.20;7.10;;;-0.10;97.30;;;;;;5033169;28;20188;-79
2022/02/13 00:48:14;;;;;;;11.30;6.90;;;-0.10;97.30;;;;;;5033220;28;20734;-80
2022/02/13 00:50:42;;;;;;;14.27;7.70;;;-0.10;97.30;;;;;;5033547;28;20434;-79
2022/02/13 00:53:08;;;;;;;19.03;7.37;;;-0.10;97.30;;;;;;5034593;28;20196;-79
2022/02/13 00:55:34;;;;;;;16.80;7.67;;;-0.20;97.30;;;;;;5032620;28;20461;-79
2022/02/13 00:57:59;;;;;;;12.50;7.50;;;-0.20;97.30;;;;;;5032978;28;20259;-79
2022/02/13 01:00:25;;;;;;;18.30;6.87;;;-0.20;97.30;;;;;;5033090;28;20507;-79
2022/02/13 01:02:51;;;;;;;13.33;6.90;;;-0.30;97.30;;;;;;5032906;28;20210;-80
2022/02/13 01:05:17;;;;;;;23.17;6.97;;;-0.40;97.30;;;;;;5032735;28;20512;-79
2022/02/13 01:07:43;;;;;;;12.13;5.60;;;-0.50;97.30;;;;;;5033975;28;20944;-79
2022/02/13 01:10:09;;;;;;;9.30;6.20;;;-0.70;97.30;;;;;;5032093;28;20497;-79
2022/02/13 01:12:35;;;;;;;11.47;5.80;;;-0.80;97.30;;;;;;5032248;28;20499;-79
2022/02/13 01:15:01;;;;;;;15.63;6.80;;;-0.90;97.30;;;;;;5032172;28;20177;-80
2022/02/13 01:17:27;;;;;;;12.27;6.30;;;-1.00;97.30;;;;;;5032889;28;20180;-79
2022/02/13 01:19:53;;;;;;;16.50;6.97;;;-1.00;97.30;;;;;;5034010;28;20458;-79
2022/02/13 01:22:18;;;;;;;14.80;7.57;;;-1.00;97.30;;;;;;5032431;28;20443;-79
2022/02/13 01:24:44;;;;;;;12.57;7.23;;;-1.00;97.30;;;;;;5032727;28;20176;-79
2022/02/13 01:27:10;;;;;;;16.07;7.23;;;-0.90;97.30;;;;;;5032365;28;20665;-79
2022/02/13 01:29:35;;;;;;;17.27;6.63;;;-0.90;97.30;;;;;;5031558;28;20274;-79
2022/02/13 01:32:01;;;;;;;16.73;6.67;;;-0.90;97.30;;;;;;5031595;28;20197;-80
2022/02/13 01:34:27;;;;;;;12.57;6.90;;;-0.90;97.30;;;;;;5032830;28;20265;-79
2022/02/13 01:36:53;;;;;;;15.83;8.33;;;-1.00;97.30;;;;;;5031856;28;20271;-79
2022/02/13 01:39:19;;;;;;;14.20;6.90;;;-1.00;97.30;;;;;;5031630;28;20509;-79
2022/02/13 01:41:49;;;;;;;13.87;6.10;;;-1.00;97.30;;;;;;5033731;28;20449;-79
2022/02/13 01:44:27;;;;;;;11.37;6.40;;;-1.00;97.30;;;;;;5029729;28;20663;-78
2022/02/13 01:46:53;;;;;;;12.60;6.40;;;-1.00;97.30;;;;;;5029669;28;20783;-78
2022/02/13 01:49:19;;;;;;;14.80;6.00;;;-1.00;97.30;;;;;;5029810;28;20485;-78
2022/02/13 01:51:45;;;;;;;20.27;7.20;;;-1.00;97.30;;;;;;5028605;28;20427;-78
2022/02/13 01:54:11;;;;;;;13.83;6.00;;;-1.00;97.30;;;;;;5030446;28;20434;-79
2022/02/13 01:56:38;;;;;;;12.17;6.80;;;-1.00;97.30;;;;;;5028946;28;20279;-78
2022/02/13 01:59:04;;;;;;;15.20;5.50;;;-1.00;97.30;;;;;;5029593;28;20180;-78
2022/02/13 02:01:30;;;;;;;14.13;6.40;;;-0.90;97.30;;;;;;5030235;28;20419;-78
2022/02/13 02:03:55;;;;;;;17.10;6.53;;;-0.90;97.30;;;;;;5029761;28;20433;-78
2022/02/13 02:06:21;;;;;;;11.97;5.60;;;-0.80;97.30;;;;;;5031031;28;20658;-78
2022/02/13 02:08:46;;;;;;;19.23;7.87;;;-0.80;97.30;;;;;;5030391;28;20184;-78
2022/02/13 02:11:12;;;;;;;10.87;5.77;;;-0.70;97.30;;;;;;5029848;28;20271;-78
2022/02/13 02:13:38;;;;;;;9.50;4.90;;;-0.70;97.30;;;;;;5029777;28;20259;-78
2022/02/13 02:16:04;;;;;;;16.03;5.50;;;-0.60;97.30;;;;;;5030644;28;20450;-78
2022/02/13 02:18:29;;;;;;;11.50;5.93;;;-0.60;97.30;;;;;;5030485;28;20210;-78
2022/02/13 02:20:58;;;;;;;10.07;6.17;;;-0.50;97.30;;;;;;5029690;28;20556;-77
2022/02/13 02:23:25;;;;;;;13.47;5.57;;;-0.50;97.30;;;;;;5030881;28;20196;-78
2022/02/13 02:25:50;;;;;;;11.17;5.40;;;-0.50;97.30;;;;;;5029680;28;20419;-78
2022/02/13 02:28:16;;;;;;;9.70;5.33;;;-0.40;97.30;;;;;;5029760;28;20415;-78
2022/02/13 02:30:41;;;;;;;8.60;5.00;;;-0.30;97.30;;;;;;5030149;28;20216;-78
2022/02/13 02:33:11;;;;;;;5.77;4.07;;;-0.30;97.30;;;;;;5031041;28;20208;-78
2022/02/13 02:35:37;;;;;;;11.40;5.33;;;-0.30;97.30;;;;;;5029738;28;20187;-78
2022/02/13 02:38:02;;;;;;;9.00;5.00;;;-0.20;97.30;;;;;;5031576;28;20411;-78
2022/02/13 02:40:28;;;;;;;10.00;5.00;;;-0.10;97.30;;;;;;5029756;28;20543;-78
2022/02/13 02:42:54;;;;;;;11.20;5.03;;;-0.10;97.30;;;;;;5031676;28;20620;-78
2022/02/13 02:45:19;;;;;;;10.37;5.50;;;0.00;97.30;;;;;;5029674;28;20230;-78
2022/02/13 02:47:45;;;;;;;7.37;4.47;;;0.00;97.30;;;;;;5029934;28;20654;-78
2022/02/13 02:50:12;;;;;;;11.17;4.83;;;0.00;97.30;;;;;;5030022;28;20275;-78
2022/02/13 02:52:37;;;;;;;7.40;4.13;;;0.10;97.30;;;;;;5029729;28;20203;-78
2022/02/13 02:55:04;;;;;;;7.50;4.23;;;0.20;97.30;;;;;;5029937;28;20415;-78
2022/02/13 02:57:30;;;;;;;7.20;3.60;;;0.20;97.30;;;;;;5029768;28;20219;-78
2022/02/13 02:59:55;;;;;;;8.87;4.57;;;0.20;97.30;;;;;;5031235;28;20454;-78
2022/02/13 03:02:21;;;;;;;9.30;4.43;;;0.30;97.30;;;;;;5030297;28;20213;-78
2022/02/13 03:04:46;;;;;;;6.27;3.40;;;0.30;97.30;;;;;;5032465;28;20177;-78
2022/02/13 03:07:12;;;;;;;8.37;4.33;;;0.40;97.30;;;;;;5033470;28;20203;-78
2022/02/13 03:09:37;;;;;;;8.50;4.53;;;0.40;97.30;;;;;;5033558;28;20200;-78
2022/02/13 03:12:03;;;;;;;8.30;4.57;;;0.40;97.30;;;;;;5033244;28;20197;-78
2022/02/13 03:14:29;;;;;;;10.70;4.37;;;0.40;97.30;;;;;;5033254;28;20641;-78
2022/02/13 03:16:55;;;;;;;5.97;4.07;;;0.50;97.30;;;;;;5033386;28;20814;-78
2022/02/13 03:19:20;;;;;;;11.40;4.50;;;0.50;97.30;;;;;;5033501;28;20211;-78
2022/02/13 03:21:46;;;;;;;13.10;4.67;;;0.60;97.30;;;;;;5032930;28;20201;-78
2022/02/13 03:24:11;;;;;;;9.03;4.40;;;0.60;97.30;;;;;;5032905;28;20188;-78
2022/02/13 03:26:37;;;;;;;7.27;4.73;;;0.60;97.30;;;;;;5033419;28;20196;-78
2022/02/13 03:29:03;;;;;;;9.10;4.80;;;0.60;97.30;;;;;;5034139;28;20208;-78
2022/02/13 03:31:29;;;;;;;8.17;4.37;;;0.60;97.30;;;;;;5032813;28;20191;-78
2022/02/13 03:33:55;;;;;;;8.10;4.40;;;0.70;97.30;;;;;;5033230;28;20427;-78
2022/02/13 03:36:20;;;;;;;8.97;4.43;;;0.70;97.30;;;;;;5034466;28;20200;-78
2022/02/13 03:38:46;;;;;;;10.10;4.40;;;0.60;97.30;;;;;;5034005;28;20494;-78
2022/02/13 03:41:12;;;;;;;11.60;4.00;;;0.60;97.30;;;;;;5033511;28;20184;-78
2022/02/13 03:43:37;;;;;;;5.10;3.60;;;0.50;97.30;;;;;;5033061;28;20287;-78
2022/02/13 03:46:03;;;;;;;7.10;3.93;;;0.50;97.30;;;;;;5032269;28;20268;-78
2022/02/13 03:48:30;;;;;;;7.00;3.70;;;0.50;97.30;;;;;;5033829;28;20200;-78
2022/02/13 03:50:56;;;;;;;8.70;4.60;;;0.50;97.30;;;;;;5032783;28;20214;-78
2022/02/13 03:53:22;;;;;;;6.93;4.40;;;0.50;97.30;;;;;;5032660;28;20436;-78
2022/02/13 03:55:48;;;;;;;8.27;4.30;;;0.60;97.30;;;;;;5032841;28;20834;-78
2022/02/13 03:58:13;;;;;;;10.43;4.23;;;0.50;97.30;;;;;;5032774;28;20699;-78
2022/02/13 04:00:39;;;;;;;6.87;4.63;;;0.50;97.30;;;;;;5033272;28;20534;-78
2022/02/13 04:03:04;;;;;;;8.63;3.97;;;0.50;97.30;;;;;;5032006;28;20310;-78
2022/02/13 04:05:30;;;;;;;8.00;3.90;;;0.50;97.30;;;;;;5032574;28;20187;-78
2022/02/13 04:07:56;;;;;;;7.20;4.17;;;0.50;97.30;;;;;;5031849;28;20238;-78
2022/02/13 04:10:22;;;;;;;6.53;3.47;;;0.50;97.30;;;;;;5031840;28;20757;-78
2022/02/13 04:12:47;;;;;;;5.77;3.60;;;0.50;97.30;;;;;;5031731;28;20558;-78
2022/02/13 04:15:13;;;;;;;6.77;4.47;;;0.50;97.30;;;;;;5033232;28;20205;-78
2022/02/13 04:17:38;;;;;;;9.23;4.10;;;0.60;97.30;;;;;;5033460;28;20177;-78
2022/02/13 04:20:05;;;;;;;11.57;4.60;;;0.60;97.30;;;;;;5032540;28;20645;-78
2022/02/13 04:22:31;;;;;;;15.40;5.33;;;0.60;97.30;;;;;;5034020;28;20255;-78
2022/02/13 04:24:57;;;;;;;15.30;3.70;;;0.60;97.30;;;;;;5032238;28;20864;-78
2022/02/13 04:27:23;;;;;;;7.97;4.40;;;0.60;97.30;;;;;;5032345;28;20423;-77
2022/02/13 04:29:49;;;;;;;5.87;4.07;;;0.60;97.30;;;;;;5031773;28;20474;-78
2022/02/13 04:32:15;;;;;;;5.10;3.00;;;0.60;97.30;;;;;;5031908;28;20201;-78
2022/02/13 04:34:41;;;;;;;5.67;3.87;;;0.60;97.30;;;;;;5033802;28;20430;-78
2022/02/13 04:37:07;;;;;;;7.30;4.50;;;0.60;97.30;;;;;;5031735;28;20180;-78
2022/02/13 04:39:32;;;;;;;8.63;4.77;;;0.60;97.30;;;;;;5032342;28;20434;-78
2022/02/13 04:41:58;;;;;;;5.20;3.67;;;0.60;97.30;;;;;;5031857;28;20223;-78
2022/02/13 04:44:23;;;;;;;8.30;3.93;;;0.60;97.30;;;;;;5033358;28;20185;-78
2022/02/13 04:46:49;;;;;;;15.00;4.87;;;0.50;97.30;;;;;;5032119;28;20527;-78
2022/02/13 04:49:15;;;;;;;5.97;3.87;;;0.50;97.30;;;;;;5031802;28;20211;-78
2022/02/13 04:51:40;;;;;;;5.93;3.83;;;0.50;97.30;;;;;;5033026;28;20595;-78
2022/02/13 04:54:06;;;;;;;9.40;4.23;;;0.40;97.30;;;;;;5029136;28;20185;-78
2022/02/13 04:56:32;;;;;;;11.60;4.63;;;0.50;97.30;;;;;;5022079;28;20208;-78
2022/02/13 04:58:57;;;;;;;8.53;4.50;;;0.40;97.30;;;;;;5025815;28;20180;-78
2022/02/13 05:01:23;;;;;;;5.13;3.53;;;0.40;97.30;;;;;;5029152;28;20180;-78
2022/02/13 05:03:48;;;;;;;9.20;4.43;;;0.40;97.30;;;;;;5023729;28;20189;-78
2022/02/13 05:06:14;;;;;;;6.67;3.43;;;0.40;97.30;;;;;;5028284;28;20186;-78
2022/02/13 05:08:39;;;;;;;8.87;4.70;;;0.40;97.30;;;;;;5019844;28;20564;-78
2022/02/13 05:11:05;;;;;;;6.07;3.40;;;0.40;97.30;;;;;;5025682;28;20637;-78
2022/02/13 05:13:31;;;;;;;7.40;3.57;;;0.30;97.30;;;;;;5032401;28;20718;-78
2022/02/13 05:15:56;;;;;;;6.80;3.50;;;0.30;97.30;;;;;;5022633;28;20177;-78
2022/02/13 05:18:22;;;;;;;8.00;3.63;;;0.30;97.30;;;;;;5028736;28;20175;-78
2022/02/13 05:20:47;;;;;;;8.93;4.20;;;0.30;97.30;;;;;;5021021;28;20191;-78
2022/02/13 05:23:13;;;;;;;5.40;3.30;;;0.30;97.30;;;;;;5030813;28;20605;-78
2022/02/13 05:25:38;;;;;;;8.50;3.60;;;0.20;97.30;;;;;;5022111;28;20180;-78
2022/02/13 05:28:04;;;;;;;8.77;3.30;;;0.20;97.30;;;;;;5024072;28;20269;-78
2022/02/13 05:30:30;;;;;;;6.00;3.80;;;0.20;97.30;;;;;;5026801;28;20208;-78
2022/02/13 05:32:55;;;;;;;6.43;3.50;;;0.20;97.30;;;;;;5026944;28;20204;-78
2022/02/13 05:35:21;;;;;;;8.27;4.50;;;0.20;97.30;;;;;;5031504;28;20184;-78
2022/02/13 05:37:50;;;;;;;8.50;3.80;;;0.20;97.30;;;;;;5026413;28;20330;-78
2022/02/13 05:40:16;;;;;;;7.63;3.67;;;0.20;97.30;;;;;;5028903;28;20448;-78
2022/02/13 05:42:41;;;;;;;7.30;4.23;;;0.20;97.30;;;;;;5026844;28;20517;-76
2022/02/13 05:45:08;;;;;;;8.43;4.40;;;0.20;97.30;;;;;;5023603;28;20192;-78
2022/02/13 05:47:35;;;;;;;6.80;4.10;;;0.20;97.30;;;;;;5026247;28;20609;-79
2022/02/13 05:50:00;;;;;;;6.70;3.87;;;0.10;97.30;;;;;;5027552;28;20470;-78
2022/02/13 05:52:26;;;;;;;12.57;4.77;;;0.10;97.30;;;;;;5021816;28;20436;-78
2022/02/13 05:54:52;;;;;;;7.50;4.17;;;0.10;97.30;;;;;;5024487;28;20563;-78
2022/02/13 05:57:17;;;;;;;5.80;3.30;;;0.10;97.30;;;;;;5020921;28;20639;-78
2022/02/13 05:59:43;;;;;;;7.73;4.07;;;0.10;97.30;;;;;;5031254;28;20184;-78
2022/02/13 06:02:09;;;;;;;8.03;3.73;;;0.10;97.30;;;;;;5021246;28;20200;-79
2022/02/13 06:04:34;;;;;;;5.33;3.30;;;0.10;97.30;;;;;;5013098;28;20204;-78
2022/02/13 06:07:01;;;;;;;13.63;4.20;;;0.00;97.30;;;;;;5026371;28;20387;-79
2022/02/13 06:09:26;;;;;;;10.47;4.40;;;0.00;97.30;;;;;;5011214;28;20201;-78
2022/02/13 06:11:52;;;;;;;10.37;3.60;;;0.00;97.30;;;;;;5026029;28;20458;-78
2022/02/13 06:14:19;;;;;;;10.50;4.97;;;0.00;97.30;;;;;;5027618;28;20181;-78
2022/02/13 06:16:45;;;;;;;8.30;5.00;;;-0.10;97.30;;;;;;5027821;28;20709;-79
2022/02/13 06:19:10;;;;;;;7.87;4.00;;;-0.10;97.30;;;;;;5026475;28;20424;-78
2022/02/13 06:21:36;;;;;;;5.23;3.50;;;-0.10;97.30;;;;;;5019470;28;20574;-79
2022/02/13 06:24:03;;;;;;;6.90;4.00;;;-0.20;97.30;;;;;;5026710;28;20500;-78
2022/02/13 06:26:33;;;;;;;7.03;3.57;;;-0.20;97.30;;;;;;5024389;28;20419;-79
2022/02/13 06:28:59;;;;;;;10.50;4.53;;;-0.20;97.30;;;;;;5019747;28;20427;-78
2022/02/13 06:31:24;;;;;;;9.03;3.97;;;-0.20;97.30;;;;;;5025859;28;20499;-78
2022/02/13 06:33:50;;;;;;;5.90;4.10;;;-0.20;97.30;;;;;;5023739;28;20188;-78
2022/02/13 06:36:15;;;;;;;8.33;3.60;;;-0.10;97.30;;;;;;5032013;28;20188;-79
2022/02/13 06:38:41;;;;;;;8.93;4.43;;;-0.10;97.30;;;;;;5031200;28;20184;-78
2022/02/13 06:41:07;;;;;;;6.83;3.90;;;0.00;97.30;;;;;;5038849;28;20184;-79
2022/02/13 06:43:33;;;;;;;6.53;3.80;;;0.00;97.30;;;;;;5027725;28;20490;-79
2022/02/13 06:45:59;;;;;;;8.63;4.60;;;0.00;97.30;;;;;;5030998;28;20196;-78
2022/02/13 06:48:30;;;;;;;10.87;3.93;;;0.10;97.30;;;;;;5025451;28;20411;-78
2022/02/13 06:50:56;;;;;;;6.80;4.37;;;0.00;97.30;;;;;;5035203;28;20462;-79
2022/02/13 06:53:22;;;;;;;9.20;4.17;;;0.00;97.30;;;;;;5031195;28;20867;-79
2022/02/13 06:55:48;;;;;;;8.33;4.90;;;0.10;97.30;;;;;;5021402;28;20446;-78
2022/02/13 06:58:14;;;;;;;7.13;4.43;;;0.10;97.30;;;;;;5023650;28;20476;-78
2022/02/13 07:00:40;;;;;;;9.20;4.17;;;0.10;97.30;;;;;;5027294;28;20517;-78
2022/02/13 07:03:07;;;;;;;8.70;4.13;;;0.10;97.30;;;;;;5032972;28;20277;-80
2022/02/13 07:05:33;;;;;;;7.93;4.50;;;0.20;97.30;;;;;;5028898;28;20430;-79
2022/02/13 07:07:58;;;;;;;8.80;3.90;;;0.20;97.30;;;;;;5025389;28;20776;-79
2022/02/13 07:10:24;;;;;;;7.03;3.87;;;0.30;97.30;;;;;;5031147;28;20287;-78
2022/02/13 07:12:50;;;;;;;9.67;4.00;;;0.30;97.30;;;;;;5033104;28;20231;-78
2022/02/13 07:15:16;;;;;;;7.40;3.57;;;0.30;97.30;;;;;;5031022;28;20181;-79
2022/02/13 07:17:42;;;;;;;9.13;4.20;;;0.40;97.30;;;;;;5025765;28;20193;-78
2022/02/13 07:20:08;;;;;;;8.20;4.00;;;0.40;97.30;;;;;;5030441;28;20875;-78
2022/02/13 07:22:35;;;;;;;11.73;4.90;;;0.40;97.30;;;;;;5024907;28;20455;-78
2022/02/13 07:25:01;;;;;;;9.13;3.93;;;0.50;97.30;;;;;;5026225;28;20434;-78
2022/02/13 07:27:27;;;;;;;10.20;4.33;;;0.50;97.30;;;;;;5033516;28;20441;-79
2022/02/13 07:29:53;;;;;;;6.83;4.10;;;0.60;97.30;;;;;;5036307;28;20466;-79
2022/02/13 07:32:18;;;;;;;14.07;4.70;;;0.70;97.30;;;;;;5032850;28;20253;-79
2022/02/13 07:34:44;;;;;;;10.67;4.87;;;0.80;97.30;;;;;;5050979;28;20615;-79
2022/02/13 07:37:09;;;;;;;9.33;4.50;;;0.90;97.30;;;;;;5038021;28;20689;-80
2022/02/13 07:39:36;;;;;;;6.30;4.33;;;1.00;97.30;;;;;;5019328;28;20215;-78
2022/02/13 07:42:02;;;;;;;8.17;4.30;;;1.00;97.30;;;;;;5026660;28;20299;-78
2022/02/13 07:44:28;;;;;;;7.70;4.03;;;1.10;97.30;;;;;;5012717;28;20423;-78
2022/02/13 07:46:54;;;;;;;6.67;3.80;;;1.20;97.30;;;;;;5013158;28;20490;-78
2022/02/13 07:49:20;;;;;;;9.43;4.60;;;1.30;97.30;;;;;;5013710;28;20460;-78
2022/02/13 07:51:47;;;;;;;9.57;4.80;;;1.40;97.30;;;;;;5032834;28;20282;-78
2022/02/13 07:54:13;;;;;;;9.00;4.00;;;1.50;97.30;;;;;;5041268;28;20450;-78
2022/02/13 07:56:39;;;;;;;12.60;4.40;;;1.60;97.30;;;;;;5049397;28;20469;-78
2022/02/13 07:59:04;;;;;;;11.00;5.07;;;1.70;97.30;;;;;;5024399;28;21219;-78
2022/02/13 08:01:30;;;;;;;8.30;4.77;;;1.70;97.30;;;;;;5032017;28;20218;-78
2022/02/13 08:03:56;;;;;;;11.70;5.10;;;1.80;97.30;;;;;;5032365;28;20542;-78
2022/02/13 08:06:22;;;;;;;8.80;4.30;;;2.00;97.30;;;;;;5032081;28;21085;-78
2022/02/13 08:08:49;;;;;;;10.03;4.93;;;2.10;97.30;;;;;;5033928;28;20180;-78
2022/02/13 08:11:15;;;;;;;6.13;3.70;;;2.10;97.30;;;;;;5032022;28;20463;-78
2022/02/13 08:13:41;;;;;;;10.80;4.50;;;2.20;97.30;;;;;;5031833;28;20473;-78
2022/02/13 08:16:07;;;;;;;8.47;3.80;;;2.30;97.30;;;;;;5034920;28;20252;-78
2022/02/13 08:18:32;;;;;;;8.27;4.27;;;2.40;97.30;;;;;;5044726;28;20427;-78
2022/02/13 08:20:58;;;;;;;9.53;4.33;;;2.50;97.30;;;;;;5045707;28;20426;-78
2022/02/13 08:23:25;;;;;;;7.10;4.63;;;2.60;97.30;;;;;;5041070;28;20230;-79
2022/02/13 08:25:51;;;;;;;6.70;4.33;;;2.70;97.30;;;;;;5033640;28;20411;-79
2022/02/13 08:28:17;;;;;;;8.37;4.90;;;2.70;97.30;;;;;;5032169;28;20439;-78
2022/02/13 08:30:43;;;;;;;7.10;4.43;;;2.80;97.30;;;;;;5034406;28;20850;-78
2022/02/13 08:33:08;;;;;;;8.37;5.07;;;3.00;97.30;;;;;;5034704;28;20482;-78
2022/02/13 08:35:34;;;;;;;9.13;5.03;;;3.10;97.30;;;;;;5031651;28;20173;-78
2022/02/13 08:38:01;;;;;;;10.87;4.97;;;3.10;97.30;;;;;;5032652;28;20179;-78
2022/02/13 08:40:27;;;;;;;11.00;4.60;;;3.20;97.30;;;;;;5034060;28;20177;-79
2022/02/13 08:42:53;;;;;;;7.97;4.10;;;3.30;97.30;;;;;;5031234;28;20458;-78
2022/02/13 08:45:18;;;;;;;8.00;4.70;;;3.30;97.30;;;;;;5048457;28;20422;-77
2022/02/13 08:47:44;;;;;;;7.03;4.20;;;3.40;97.30;;;;;;5042937;28;20188;-80
2022/02/13 08:50:10;;;;;;;8.10;4.47;;;3.40;97.30;;;;;;5032564;28;20346;-77
2022/02/13 08:52:36;;;;;;;7.37;3.80;;;3.50;97.30;;;;;;5031753;28;20909;-79
2022/02/13 08:55:02;;;;;;;7.93;4.77;;;3.60;97.30;;;;;;5033673;28;20211;-78
2022/02/13 08:57:28;;;;;;;9.60;4.63;;;3.70;97.30;;;;;;5032768;28;20259;-79
2022/02/13 08:59:53;;;;;;;8.73;4.40;;;3.70;97.30;;;;;;5039630;28;20583;-78
2022/02/13 09:02:19;;;;;;;9.43;5.27;;;3.80;96.80;;;;;;5034082;28;20208;-78
2022/02/13 09:04:51;;;;;;;9.30;4.57;;;3.90;96.40;;;;;;5047924;28;20190;-77
2022/02/13 09:07:17;;;;;;;7.77;4.83;;;3.90;96.50;;;;;;5032995;28;20185;-78
2022/02/13 09:09:45;;;;;;;7.10;4.60;;;4.10;96.30;;;;;;5044909;28;20465;-80
2022/02/13 09:12:11;;;;;;;12.03;4.87;;;4.20;96.40;;;;;;5038998;28;20251;-80
2022/02/13 09:14:36;;;;;;;12.27;5.00;;;4.30;95.80;;;;;;5038157;28;20519;-78
2022/02/13 09:17:03;;;;;;;6.90;3.67;;;4.40;95.40;;;;;;5038958;28;20494;-80
2022/02/13 09:19:29;;;;;;;7.30;4.03;;;4.50;95.10;;;;;;5039979;28;20600;-78
2022/02/13 09:21:55;;;;;;;5.53;3.57;;;4.50;94.20;;;;;;5039116;28;20479;-78
2022/02/13 09:24:21;;;;;;;13.30;4.50;;;4.60;93.50;;;;;;5037368;28;20271;-78
2022/02/13 09:26:48;;;;;;;6.27;3.43;;;4.70;93.60;;;;;;5028387;28;20971;-79
2022/02/13 09:29:15;;;;;;;7.73;3.97;;;4.80;93.90;;;;;;5049729;28;20513;-78
2022/02/13 09:31:40;;;;;;;8.60;4.00;;;4.90;93.00;;;;;;5043110;28;20936;-79
2022/02/13 09:34:07;;;;;;;6.77;3.97;;;5.00;92.60;;;;;;5039840;28;20494;-79
2022/02/13 09:36:32;;;;;;;7.60;3.60;;;5.10;92.40;;;;;;5042496;28;20271;-79
2022/02/13 09:38:58;;;;;;;5.50;4.17;;;5.10;92.00;;;;;;5034918;28;20461;-79
2022/02/13 09:41:24;;;;;;;9.07;4.13;;;5.20;91.60;;;;;;5033410;28;20192;-80
2022/02/13 09:43:50;;;;;;;6.27;3.83;;;5.20;91.80;;;;;;5037411;28;20184;-79
2022/02/13 09:46:16;;;;;;;8.83;5.00;;;5.40;91.90;;;;;;5028849;28;20645;-79
2022/02/13 09:48:43;;;;;;;8.07;4.07;;;5.40;91.50;;;;;;5044246;28;20414;-79
2022/02/13 09:51:10;;;;;;;8.20;5.07;;;5.40;91.70;;;;;;5051817;28;20465;-79
2022/02/13 09:53:36;;;;;;;8.93;4.63;;;5.60;91.70;;;;;;5041304;28;20439;-78
2022/02/13 09:56:04;;;;;;;7.70;4.23;;;5.70;90.90;;;;;;5032916;28;20767;-80
2022/02/13 09:58:30;;;;;;;6.40;3.50;;;5.80;90.80;;;;;;5033972;28;20450;-80
2022/02/13 10:01:07;;;;;;;6.70;3.70;;;5.80;90.20;;;;;;5034440;28;20606;-81
2022/02/13 10:03:38;;;;;;;6.23;4.00;;;5.80;90.50;;;;;;5051902;28;20469;-82
2022/02/13 10:06:13;;;;;;;10.07;4.60;;;5.90;90.40;;;;;;5051964;28;20418;-83
2022/02/13 10:08:43;;;;;;;9.27;3.70;;;5.90;89.80;;;;;;5047413;28;20418;-81
2022/02/13 10:11:14;;;;;;;8.33;4.60;;;5.90;89.70;;;;;;5044302;28;20482;-80
2022/02/13 10:13:50;;;;;;;9.50;4.33;;;6.00;90.10;;;;;;5034930;28;20459;-82
2022/02/13 10:16:21;;;;;;;7.40;4.27;;;6.00;89.50;;;;;;5035738;28;20429;-81
2022/02/13 10:18:49;;;;;;;8.00;4.00;;;6.10;89.60;;;;;;5039203;28;20483;-81
2022/02/13 10:21:39;;;;;;;7.73;4.20;;;6.20;89.80;;;;;;5055633;28;20840;-81
2022/02/13 10:24:23;;;;;;;7.07;4.13;;;6.30;89.10;;;;;;5043798;28;20423;-84
2022/02/13 10:26:56;;;;;;;12.00;6.03;;;6.40;89.00;;;;;;5039471;28;20423;-81
2022/02/13 10:29:27;;;;;;;11.73;5.40;;;6.50;89.40;;;;;;5025998;28;20464;-82
2022/02/13 10:32:29;;;;;;;7.80;4.13;;;6.50;89.00;;;;;;5014199;28;20876;-82
2022/02/13 10:35:12;;;;;;;10.70;5.33;;;6.60;89.20;;;;;;5041107;28;20448;-81
2022/02/13 10:37:43;;;;;;;5.27;3.67;;;6.50;88.60;;;;;;5047391;28;20435;-81
2022/02/13 10:40:13;;;;;;;8.37;4.17;;;6.60;89.30;;;;;;5030246;28;20424;-81
2022/02/13 10:42:39;;;;;;;13.17;4.80;;;6.70;88.90;;;;;;5032049;28;20475;-81
2022/02/13 10:45:21;;;;;;;18.50;4.67;;;6.80;88.60;;;;;;5037026;28;20423;-81
2022/02/13 10:47:49;;;;;;;11.80;4.80;;;7.00;89.10;;;;;;5033280;28;20185;-80
2022/02/13 10:50:19;;;;;;;10.60;4.90;;;7.10;88.70;;;;;;5032108;28;20466;-82
2022/02/13 10:52:47;;;;;;;10.20;4.20;;;7.30;88.50;;;;;;5036000;28;20451;-82
2022/02/13 10:55:13;;;;;;;7.20;4.10;;;7.40;88.00;;;;;;5028774;28;20423;-81
2022/02/13 10:57:41;;;;;;;7.47;4.20;;;7.40;87.80;;;;;;5033901;28;20773;-81
2022/02/13 11:00:11;;;;;;;6.60;3.40;;;7.50;88.10;;;;;;5031659;28;20271;-82
2022/02/13 11:02:39;;;;;;;9.43;6.17;;;7.60;88.20;;;;;;5015053;28;20436;-81
2022/02/13 11:05:06;;;;;;;6.37;3.70;;;7.80;88.40;;;;;;5033443;28;20415;-82
2022/02/13 11:07:34;;;;;;;8.53;4.73;;;8.00;87.40;;;;;;5036034;28;20426;-82
2022/02/13 11:10:01;;;;;;;15.77;4.77;;;8.00;87.90;;;;;;5036553;28;20538;-82
2022/02/13 11:12:28;;;;;;;11.30;4.80;;;8.10;87.20;;;;;;5031324;28;20561;-82
2022/02/13 11:15:17;;;;;;;7.77;4.17;;;8.20;87.40;;;;;;5031433;28;20423;-82
2022/02/13 11:17:45;;;;;;;11.13;5.40;;;8.30;87.10;;;;;;5035143;28;20439;-81
2022/02/13 11:20:13;;;;;;;9.17;4.27;;;8.50;87.50;;;;;;5034629;28;20493;-81
2022/02/13 11:22:41;;;;;;;8.93;4.73;;;8.60;87.30;;;;;;5039074;28;20442;-82
2022/02/13 11:25:08;;;;;;;10.00;4.70;;;8.80;86.90;;;;;;5046650;28;20496;-81
2022/02/13 11:27:57;;;;;;;7.07;4.73;;;8.70;86.10;;;;;;5043607;28;20422;-81
2022/02/13 11:30:49;;;;;;;5.90;4.23;;;8.90;86.90;;;;;;5020737;28;20546;-82
2022/02/13 11:33:30;;;;;;;10.07;4.23;;;9.00;85.90;;;;;;5053501;28;20744;-82
2022/02/13 11:36:02;;;;;;;7.23;4.40;;;9.20;86.10;;;;;;5036398;28;20530;-82
2022/02/13 11:38:51;;;;;;;12.43;4.47;;;9.30;85.80;;;;;;5037387;28;20423;-81
2022/02/13 11:41:40;;;;;;;7.53;4.43;;;9.40;85.80;;;;;;5038123;28;20421;-81
2022/02/13 11:44:08;;;;;;;9.20;4.53;;;9.50;85.40;;;;;;5050923;28;20419;-82
2022/02/13 11:46:35;;;;;;;7.43;3.90;;;9.50;84.90;;;;;;5034292;28;20415;-81
2022/02/13 11:49:05;;;;;;;10.93;5.27;;;9.70;85.70;;;;;;5036084;28;20489;-82
2022/02/13 11:51:46;;;;;;;5.57;3.60;;;9.70;84.80;;;;;;5034002;28;20426;-82
2022/02/13 11:54:47;;;;;;;9.23;4.27;;;9.70;84.70;;;;;;5034211;28;20656;-83
2022/02/13 11:57:15;;;;;;;6.67;3.87;;;9.80;84.70;;;;;;5032816;28;20702;-83
2022/02/13 11:59:54;;;;;;;6.60;4.47;;;9.90;84.60;;;;;;5033725;28;20430;-82
2022/02/13 12:02:31;;;;;;;8.50;3.83;;;10.00;84.60;;;;;;5035405;28;20423;-81
2022/02/13 12:05:06;;;;;;;7.87;3.87;;;10.10;84.30;;;;;;5035604;28;20419;-81
2022/02/13 12:07:37;;;;;;;7.30;4.03;;;10.30;84.30;;;;;;5034723;28;20423;-82
2022/02/13 12:10:03;;;;;;;5.90;3.77;;;10.40;84.10;;;;;;5033092;28;20455;-81
2022/02/13 12:12:30;;;;;;;8.67;4.10;;;10.60;83.80;;;;;;5033436;28;20477;-81
2022/02/13 12:14:56;;;;;;;8.90;4.33;;;10.60;83.30;;;;;;5033340;28;20956;-82
2022/02/13 12:17:26;;;;;;;6.73;4.23;;;10.70;83.30;;;;;;5035186;28;20407;-81
2022/02/13 12:20:04;;;;;;;7.10;3.90;;;10.90;83.40;;;;;;5034538;28;20275;-81
2022/02/13 12:22:30;;;;;;;6.60;4.10;;;10.80;82.70;;;;;;5017936;28;20457;-81
2022/02/13 12:24:58;;;;;;;6.10;3.70;;;10.80;82.80;;;;;;5034611;28;20438;-81
2022/02/13 12:27:24;;;;;;;5.83;3.60;;;11.10;83.60;;;;;;5035413;28;20515;-81
2022/02/13 12:29:55;;;;;;;5.90;4.40;;;11.30;83.00;;;;;;5034875;28;20463;-81
2022/02/13 12:32:30;;;;;;;5.43;3.60;;;11.40;81.80;;;;;;5035360;28;20467;-81
2022/02/13 12:34:58;;;;;;;7.90;3.67;;;11.40;81.60;;;;;;5036779;28;20880;-81
2022/02/13 12:37:42;;;;;;;7.73;3.77;;;11.40;81.60;;;;;;5034837;28;20515;-82
2022/02/13 12:40:10;;;;;;;7.00;3.90;;;11.50;81.90;;;;;;5034840;28;20504;-81
2022/02/13 12:42:39;;;;;;;8.47;4.63;;;11.70;82.00;;;;;;5034632;28;20427;-81
2022/02/13 12:45:10;;;;;;;10.30;3.93;;;11.70;81.50;;;;;;5033833;28;20423;-81
2022/02/13 12:47:38;;;;;;;8.40;3.90;;;11.90;81.60;;;;;;5034465;28;20423;-83
2022/02/13 12:50:07;;;;;;;8.97;3.50;;;12.10;80.90;;;;;;5034145;28;20482;-81
2022/02/13 12:52:34;;;;;;;11.30;4.30;;;12.20;80.60;;;;;;5034470;28;20459;-82